Time;durP1;ratioP1;P1;durP2;ratioP2;P2;SDS_P1;SDS_P2;PMS_P1;PMS_P2;Temp;Humidity;BMP_temperature;BMP_pressure;BME280_temperature;BME280_humidity;BME280_pressure;Samples;Min_cycle;Max_cycle;Signal;HPM_P1;HPM_P2
2023/05/28 00:01:57;;;;;;;28.40;15.80;;;13.70;99.90;;;;;;4196278;28;20310;-78
2023/05/28 00:03:58;;;;;;;30.63;15.87;;;13.60;99.90;;;;;;4194355;28;20811;-78
2023/05/28 00:06:00;;;;;;;32.40;16.73;;;13.60;99.90;;;;;;4192723;28;20215;-78
2023/05/28 00:08:03;;;;;;;30.87;16.83;;;13.60;99.90;;;;;;4190392;28;20313;-79
2023/05/28 00:10:05;;;;;;;27.80;15.80;;;13.50;99.90;;;;;;4198685;28;20283;-78
2023/05/28 00:12:08;;;;;;;24.53;14.33;;;13.50;99.90;;;;;;4200032;28;20240;-78
2023/05/28 00:14:10;;;;;;;22.73;12.60;;;13.50;99.90;;;;;;4199364;28;20301;-78
2023/05/28 00:16:14;;;;;;;21.30;11.00;;;13.40;99.90;;;;;;4200171;28;20273;-78
2023/05/28 00:18:17;;;;;;;21.57;9.60;;;13.40;99.90;;;;;;4197075;28;20252;-79
2023/05/28 00:20:19;;;;;;;17.10;9.27;;;13.30;99.90;;;;;;4196531;28;20253;-78
2023/05/28 00:22:21;;;;;;;17.07;9.17;;;13.30;99.90;;;;;;4193752;28;20210;-78
2023/05/28 00:24:23;;;;;;;17.13;9.67;;;13.60;99.90;;;;;;4197417;28;20248;-78
2023/05/28 00:26:25;;;;;;;19.80;10.67;;;13.30;99.90;;;;;;4196483;28;20948;-79
2023/05/28 00:28:27;;;;;;;22.60;12.10;;;13.30;99.90;;;;;;4196686;28;20592;-78
2023/05/28 00:30:29;;;;;;;21.83;12.47;;;13.20;99.90;;;;;;4194303;28;20249;-78
2023/05/28 00:32:31;;;;;;;29.03;14.73;;;13.20;99.90;;;;;;4198054;28;20230;-78
2023/05/28 00:34:34;;;;;;;27.27;14.43;;;13.20;99.90;;;;;;4197090;28;20238;-78
2023/05/28 00:36:36;;;;;;;26.17;14.10;;;13.10;99.90;;;;;;4198432;28;20202;-78
2023/05/28 00:38:38;;;;;;;28.57;14.97;;;13.10;99.90;;;;;;4198611;28;21150;-78
2023/05/28 00:40:44;;;;;;;27.23;14.70;;;13.10;99.90;;;;;;4198608;28;20260;-79
2023/05/28 00:42:46;;;;;;;25.77;14.30;;;13.10;99.90;;;;;;4199098;28;20258;-78
2023/05/28 00:44:48;;;;;;;27.90;14.63;;;13.00;99.90;;;;;;4196531;28;20681;-78
2023/05/28 00:46:50;;;;;;;31.97;14.90;;;13.00;99.90;;;;;;4196338;28;20225;-78
2023/05/28 00:48:52;;;;;;;22.33;12.13;;;12.90;99.90;;;;;;4198796;28;20263;-77
2023/05/28 00:50:56;;;;;;;21.37;12.10;;;12.90;99.90;;;;;;4196889;28;20237;-78
2023/05/28 00:52:58;;;;;;;21.63;10.80;;;12.90;99.90;;;;;;4198134;28;20237;-77
2023/05/28 00:55:00;;;;;;;17.50;9.60;;;12.80;99.90;;;;;;4197085;28;20214;-78
2023/05/28 00:57:02;;;;;;;16.53;8.63;;;12.80;99.90;;;;;;4196640;28;20218;-78
2023/05/28 00:59:07;;;;;;;14.70;8.30;;;12.80;99.90;;;;;;4195364;28;20213;-78
2023/05/28 01:01:09;;;;;;;16.63;8.43;;;12.80;99.90;;;;;;4194435;28;21043;-78
2023/05/28 01:03:11;;;;;;;15.27;7.77;;;12.70;99.90;;;;;;4197169;28;20202;-78
2023/05/28 01:05:14;;;;;;;15.10;8.73;;;12.70;99.90;;;;;;4196915;28;20259;-78
2023/05/28 01:07:17;;;;;;;17.83;9.60;;;12.70;99.90;;;;;;4196801;28;20218;-78
2023/05/28 01:09:19;;;;;;;18.37;9.70;;;12.60;99.90;;;;;;4195780;28;20293;-78
2023/05/28 01:11:22;;;;;;;20.87;11.10;;;12.60;99.90;;;;;;4197086;28;20320;-78
2023/05/28 01:13:24;;;;;;;21.27;11.50;;;12.60;99.90;;;;;;4196332;28;20320;-78
2023/05/28 01:15:26;;;;;;;20.07;10.97;;;12.50;99.90;;;;;;4194998;28;20723;-78
2023/05/28 01:17:29;;;;;;;21.53;11.43;;;12.50;99.90;;;;;;4195067;28;20270;-78
2023/05/28 01:19:31;;;;;;;18.13;10.67;;;12.50;99.90;;;;;;4196695;28;20206;-78
2023/05/28 01:21:33;;;;;;;17.67;10.13;;;12.40;99.90;;;;;;4193585;28;20237;-77
2023/05/28 01:23:41;;;;;;;19.57;10.07;;;12.40;99.90;;;;;;4195933;28;20297;-78
2023/05/28 01:25:44;;;;;;;17.70;9.20;;;12.40;99.90;;;;;;4195027;28;20772;-77
2023/05/28 01:27:46;;;;;;;17.87;9.40;;;12.40;99.90;;;;;;4193433;28;20224;-77
2023/05/28 01:29:48;;;;;;;16.60;9.17;;;12.30;99.90;;;;;;4196029;28;20214;-78
2023/05/28 01:31:50;;;;;;;15.17;8.90;;;12.30;99.90;;;;;;4194775;28;20714;-78
2023/05/28 01:33:52;;;;;;;15.70;8.87;;;12.30;99.90;;;;;;4196650;28;20237;-78
2023/05/28 01:35:57;;;;;;;15.17;8.33;;;12.20;99.90;;;;;;4192701;28;20206;-77
2023/05/28 01:38:03;;;;;;;14.43;8.43;;;12.20;99.90;;;;;;4192717;28;20616;-78
2023/05/28 01:40:09;;;;;;;16.47;8.60;;;12.10;99.90;;;;;;4197669;28;20336;-77
2023/05/28 01:42:12;;;;;;;15.20;8.77;;;12.20;99.90;;;;;;4190729;28;20206;-78
2023/05/28 01:44:16;;;;;;;18.00;8.57;;;12.10;99.90;;;;;;4194989;28;20300;-78
2023/05/28 01:46:19;;;;;;;14.67;8.63;;;12.10;99.90;;;;;;4190989;28;20241;-78
2023/05/28 01:48:21;;;;;;;15.17;8.53;;;12.10;99.90;;;;;;4195892;28;20632;-78
2023/05/28 01:50:25;;;;;;;14.67;8.67;;;12.10;99.90;;;;;;4196120;28;20230;-78
2023/05/28 01:52:27;;;;;;;16.63;8.77;;;12.00;99.90;;;;;;4193588;28;20213;-78
2023/05/28 01:54:29;;;;;;;13.50;7.67;;;12.00;99.90;;;;;;4195458;28;20236;-78
2023/05/28 01:56:32;;;;;;;13.57;7.83;;;12.00;99.90;;;;;;4196195;28;20221;-78
2023/05/28 01:58:34;;;;;;;12.40;7.33;;;11.90;99.90;;;;;;4193136;28;20219;-78
2023/05/28 02:00:43;;;;;;;14.03;7.73;;;11.90;99.90;;;;;;4192653;28;20324;-77
2023/05/28 02:02:45;;;;;;;14.40;8.03;;;11.90;99.90;;;;;;4195312;28;20649;-78
2023/05/28 02:04:47;;;;;;;13.50;7.67;;;11.90;99.90;;;;;;4194133;28;20224;-78
2023/05/28 02:06:49;;;;;;;14.10;7.73;;;11.90;99.90;;;;;;4195149;28;20229;-77
2023/05/28 02:08:52;;;;;;;13.30;7.00;;;11.80;99.90;;;;;;4196752;28;20217;-78
2023/05/28 02:10:54;;;;;;;14.73;7.40;;;11.80;99.90;;;;;;4197072;28;20240;-77
2023/05/28 02:13:00;;;;;;;11.73;6.70;;;11.80;99.90;;;;;;4194094;28;20728;-78
2023/05/28 02:15:02;;;;;;;11.97;6.40;;;11.80;99.90;;;;;;4191358;28;20212;-78
2023/05/28 02:17:04;;;;;;;12.17;6.40;;;11.70;99.90;;;;;;4191189;28;20208;-77
2023/05/28 02:19:06;;;;;;;11.40;6.13;;;11.70;99.90;;;;;;4187859;28;20220;-78
2023/05/28 02:21:08;;;;;;;10.90;5.93;;;11.70;99.90;;;;;;4190825;28;20233;-78
2023/05/28 02:23:10;;;;;;;11.40;6.00;;;11.70;99.90;;;;;;4189611;28;20270;-78
2023/05/28 02:25:12;;;;;;;12.90;6.77;;;11.70;99.90;;;;;;4191858;28;20206;-78
2023/05/28 02:27:14;;;;;;;14.47;6.87;;;11.70;99.90;;;;;;4190761;28;20278;-77
2023/05/28 02:29:18;;;;;;;12.97;6.30;;;11.70;99.90;;;;;;4182726;28;20217;-77
2023/05/28 02:31:20;;;;;;;12.30;6.83;;;11.60;99.90;;;;;;4194880;28;20228;-77
2023/05/28 02:33:22;;;;;;;12.57;6.87;;;11.60;99.90;;;;;;4194253;28;20251;-77
2023/05/28 02:35:24;;;;;;;12.43;7.00;;;11.60;99.90;;;;;;4186992;28;20274;-77
2023/05/28 02:37:26;;;;;;;14.43;7.90;;;11.60;99.90;;;;;;4193017;28;20220;-77
2023/05/28 02:39:28;;;;;;;13.17;7.63;;;11.60;99.90;;;;;;4195408;28;20576;-78
2023/05/28 02:41:30;;;;;;;15.30;7.60;;;11.60;99.90;;;;;;4195108;28;20228;-77
2023/05/28 02:43:32;;;;;;;13.40;7.57;;;11.50;99.90;;;;;;4195823;28;20588;-77
2023/05/28 02:45:35;;;;;;;14.40;7.70;;;11.50;99.90;;;;;;4194116;28;20300;-78
2023/05/28 02:47:37;;;;;;;14.40;7.17;;;11.50;99.90;;;;;;4196003;28;20232;-77
2023/05/28 02:49:39;;;;;;;13.73;6.87;;;11.50;99.90;;;;;;4193115;28;20213;-78
2023/05/28 02:51:41;;;;;;;13.37;6.93;;;11.50;99.90;;;;;;4194906;28;20296;-78
2023/05/28 02:53:42;;;;;;;12.30;6.80;;;11.40;99.90;;;;;;4194773;28;21374;-78
2023/05/28 02:55:44;;;;;;;12.50;6.73;;;11.40;99.90;;;;;;4192911;28;20204;-78
2023/05/28 02:57:46;;;;;;;11.63;6.83;;;11.40;99.90;;;;;;4195960;28;20224;-78
2023/05/28 02:59:48;;;;;;;14.43;7.53;;;11.40;99.90;;;;;;4196950;28;20216;-78
2023/05/28 03:01:51;;;;;;;13.40;6.83;;;11.40;99.90;;;;;;4197500;28;20217;-78
2023/05/28 03:03:53;;;;;;;11.83;6.83;;;11.30;99.90;;;;;;4194461;28;20291;-77
2023/05/28 03:05:56;;;;;;;11.47;6.70;;;11.30;99.90;;;;;;4194082;28;20209;-77
2023/05/28 03:07:58;;;;;;;12.13;6.83;;;11.30;99.90;;;;;;4195077;28;20219;-77
2023/05/28 03:10:00;;;;;;;12.37;6.73;;;11.30;99.90;;;;;;4192517;28;20780;-77
2023/05/28 03:12:02;;;;;;;10.30;6.27;;;11.30;99.90;;;;;;4195624;28;20307;-77
2023/05/28 03:14:04;;;;;;;11.23;6.30;;;11.20;99.90;;;;;;4194458;28;20235;-77
2023/05/28 03:16:07;;;;;;;13.47;6.63;;;11.20;99.90;;;;;;4195335;28;20731;-77
2023/05/28 03:18:10;;;;;;;12.03;5.73;;;11.20;99.90;;;;;;4194330;28;20211;-77
2023/05/28 03:20:12;;;;;;;12.50;5.60;;;11.10;99.90;;;;;;4194959;28;20232;-78
2023/05/28 03:22:14;;;;;;;10.70;5.97;;;11.10;99.90;;;;;;4195086;28;20224;-77
2023/05/28 03:24:16;;;;;;;13.43;6.60;;;11.10;99.90;;;;;;4192520;28;20300;-77
2023/05/28 03:26:18;;;;;;;9.97;5.40;;;11.10;99.90;;;;;;4192458;28;20247;-78
2023/05/28 03:28:20;;;;;;;12.17;5.93;;;11.10;99.90;;;;;;4194536;28;20223;-78
2023/05/28 03:30:22;;;;;;;10.77;5.60;;;11.10;99.90;;;;;;4194893;28;20244;-77
2023/05/28 03:32:24;;;;;;;10.50;6.10;;;11.10;99.90;;;;;;4194859;28;20295;-78
2023/05/28 03:34:27;;;;;;;8.63;5.17;;;11.00;99.90;;;;;;4195005;28;20860;-78
2023/05/28 03:36:30;;;;;;;13.10;6.57;;;11.00;99.90;;;;;;4191851;28;20298;-78
2023/05/28 03:38:32;;;;;;;11.73;6.47;;;11.00;99.90;;;;;;4189336;28;20216;-78
2023/05/28 03:40:33;;;;;;;12.10;6.33;;;11.00;99.90;;;;;;4189106;28;20242;-77
2023/05/28 03:42:35;;;;;;;13.97;6.60;;;11.00;99.90;;;;;;4193463;28;20216;-77
2023/05/28 03:44:37;;;;;;;15.93;7.60;;;11.00;99.90;;;;;;4191832;28;20226;-78
2023/05/28 03:46:40;;;;;;;14.17;6.83;;;11.00;99.90;;;;;;4191722;28;20208;-78
2023/05/28 03:48:42;;;;;;;12.70;6.83;;;11.00;99.90;;;;;;4191935;28;20242;-78
2023/05/28 03:50:46;;;;;;;11.57;6.73;;;11.00;99.90;;;;;;4190960;28;20334;-78
2023/05/28 03:52:48;;;;;;;12.83;6.00;;;10.90;99.90;;;;;;4192640;28;20239;-78
2023/05/28 03:54:50;;;;;;;12.13;5.90;;;10.90;99.90;;;;;;4194118;28;20643;-78
2023/05/28 03:56:52;;;;;;;13.70;6.83;;;10.90;99.90;;;;;;4194128;28;20304;-78
2023/05/28 03:58:54;;;;;;;10.83;5.63;;;10.90;99.90;;;;;;4194528;28;20212;-78
2023/05/28 04:00:56;;;;;;;14.17;6.23;;;10.90;99.90;;;;;;4194733;28;20804;-78
2023/05/28 04:02:58;;;;;;;12.97;6.50;;;11.00;99.90;;;;;;4195137;28;20682;-78
2023/05/28 04:05:00;;;;;;;9.20;5.70;;;10.90;99.90;;;;;;4194708;28;20215;-77
2023/05/28 04:07:03;;;;;;;16.13;6.40;;;10.90;99.90;;;;;;4194902;28;20224;-77
2023/05/28 04:09:05;;;;;;;12.27;6.83;;;10.90;99.90;;;;;;4193527;28;20298;-77
2023/05/28 04:11:07;;;;;;;11.33;6.13;;;10.90;99.90;;;;;;4193062;28;20590;-77
2023/05/28 04:13:09;;;;;;;10.87;6.27;;;10.90;99.90;;;;;;4197249;28;20239;-78
2023/05/28 04:15:11;;;;;;;11.93;5.87;;;10.90;99.90;;;;;;4199505;28;20242;-78
2023/05/28 04:17:13;;;;;;;8.23;5.57;;;10.90;99.90;;;;;;4196498;28;20209;-78
2023/05/28 04:19:15;;;;;;;12.17;6.27;;;10.90;99.90;;;;;;4197426;28;20304;-77
2023/05/28 04:21:17;;;;;;;10.07;6.00;;;10.90;99.90;;;;;;4196672;28;20318;-78
2023/05/28 04:23:20;;;;;;;10.13;5.90;;;10.90;99.90;;;;;;4196296;28;20273;-78
2023/05/28 04:25:24;;;;;;;11.43;6.27;;;10.90;99.90;;;;;;4197445;28;20251;-78
2023/05/28 04:27:26;;;;;;;12.87;6.20;;;10.90;99.90;;;;;;4195974;28;20215;-78
2023/05/28 04:29:30;;;;;;;11.93;6.00;;;10.90;99.90;;;;;;4197121;28;20216;-78
2023/05/28 04:31:32;;;;;;;10.83;6.03;;;10.90;99.90;;;;;;4201270;28;20238;-78
2023/05/28 04:33:36;;;;;;;13.23;6.10;;;10.90;99.90;;;;;;4200814;28;20306;-78
2023/05/28 04:35:38;;;;;;;10.57;5.77;;;10.90;99.90;;;;;;4199802;28;20616;-78
2023/05/28 04:37:42;;;;;;;10.50;5.43;;;10.90;99.90;;;;;;4199791;28;20248;-78
2023/05/28 04:39:46;;;;;;;8.83;5.67;;;10.80;99.90;;;;;;4201565;28;20215;-78
2023/05/28 04:41:53;;;;;;;11.10;6.10;;;10.80;99.90;;;;;;4199517;28;20218;-78
2023/05/28 04:43:55;;;;;;;9.77;5.63;;;10.80;99.90;;;;;;4198243;28;20263;-78
2023/05/28 04:45:58;;;;;;;10.67;5.73;;;10.80;99.90;;;;;;4196129;28;20662;-78
2023/05/28 04:48:01;;;;;;;10.87;5.30;;;10.80;99.90;;;;;;4194076;28;20693;-78
2023/05/28 04:50:04;;;;;;;8.63;5.10;;;10.80;99.90;;;;;;4196643;28;20316;-78
2023/05/28 04:52:06;;;;;;;12.97;5.80;;;10.80;99.90;;;;;;4197187;28;20689;-78
2023/05/28 04:54:08;;;;;;;10.30;5.10;;;10.80;99.90;;;;;;4197749;28;20256;-77
2023/05/28 04:56:11;;;;;;;13.20;5.57;;;10.90;99.90;;;;;;4193198;28;20215;-77
2023/05/28 04:58:13;;;;;;;8.50;4.77;;;10.90;99.90;;;;;;4196848;28;20290;-78
2023/05/28 05:00:15;;;;;;;6.80;4.17;;;10.90;99.90;;;;;;4196774;28;20328;-78
2023/05/28 05:02:19;;;;;;;7.67;4.27;;;10.80;99.90;;;;;;4198430;28;20663;-78
2023/05/28 05:04:21;;;;;;;7.63;4.37;;;10.80;99.90;;;;;;4196082;28;20208;-78
2023/05/28 05:06:23;;;;;;;6.47;4.03;;;10.80;99.90;;;;;;4200559;28;20217;-78
2023/05/28 05:08:25;;;;;;;6.70;4.00;;;10.80;99.90;;;;;;4200711;28;20247;-78
2023/05/28 05:10:27;;;;;;;8.07;4.10;;;10.80;99.90;;;;;;4197711;28;20241;-78
2023/05/28 05:12:30;;;;;;;7.93;4.47;;;10.80;99.90;;;;;;4198069;28;20768;-78
2023/05/28 05:14:32;;;;;;;5.77;3.60;;;10.90;99.90;;;;;;4196364;28;20216;-78
2023/05/28 05:16:34;;;;;;;6.30;3.57;;;10.90;99.90;;;;;;4191457;28;20670;-78
2023/05/28 05:18:36;;;;;;;6.33;3.40;;;10.80;99.90;;;;;;4191541;28;20216;-77
2023/05/28 05:20:40;;;;;;;5.67;3.30;;;10.90;99.90;;;;;;4193442;28;20224;-78
2023/05/28 05:22:42;;;;;;;7.20;3.50;;;10.90;99.90;;;;;;4193818;28;20302;-77
2023/05/28 05:24:44;;;;;;;7.10;3.17;;;10.90;99.90;;;;;;4194716;28;20300;-77
2023/05/28 05:26:46;;;;;;;7.13;3.57;;;10.90;99.90;;;;;;4197367;28;20215;-77
2023/05/28 05:28:50;;;;;;;5.67;3.60;;;11.00;99.90;;;;;;4197500;28;20338;-78
2023/05/28 05:30:52;;;;;;;8.27;3.80;;;11.00;99.90;;;;;;4196913;28;20229;-78
2023/05/28 05:32:54;;;;;;;6.17;3.53;;;11.00;99.90;;;;;;4198436;28;20240;-77
2023/05/28 05:34:55;;;;;;;7.50;3.70;;;11.10;99.90;;;;;;4199255;28;20248;-77
2023/05/28 05:36:58;;;;;;;5.27;3.20;;;11.10;99.90;;;;;;4197189;28;20212;-77
2023/05/28 05:39:00;;;;;;;7.53;3.60;;;11.10;99.90;;;;;;4197032;28;20794;-77
2023/05/28 05:41:02;;;;;;;6.60;3.30;;;11.10;99.90;;;;;;4194301;28;20324;-78
2023/05/28 05:43:04;;;;;;;5.30;3.30;;;11.20;99.90;;;;;;4192770;28;20300;-77
2023/05/28 05:45:09;;;;;;;5.07;2.93;;;11.20;99.90;;;;;;4195688;28;20212;-78
2023/05/28 05:47:11;;;;;;;6.23;3.53;;;11.20;99.90;;;;;;4194570;28;20673;-75
2023/05/28 05:49:14;;;;;;;4.73;3.23;;;11.20;99.90;;;;;;4192496;28;20303;-76
2023/05/28 05:51:18;;;;;;;7.77;3.50;;;11.30;99.90;;;;;;4194276;28;20240;-76
2023/05/28 05:53:21;;;;;;;4.83;3.00;;;11.30;99.90;;;;;;4193603;28;20205;-76
2023/05/28 05:55:23;;;;;;;4.80;2.70;;;11.40;99.90;;;;;;4192745;28;20311;-76
2023/05/28 05:57:26;;;;;;;4.57;2.60;;;11.30;99.90;;;;;;4196683;28;20209;-76
2023/05/28 05:59:28;;;;;;;4.20;2.60;;;11.40;99.90;;;;;;4192678;28;20418;-76
2023/05/28 06:01:31;;;;;;;4.63;2.80;;;11.50;99.90;;;;;;4195594;28;20248;-76
2023/05/28 06:03:33;;;;;;;6.40;2.70;;;11.50;99.90;;;;;;4188724;28;20220;-76
2023/05/28 06:05:36;;;;;;;5.03;2.67;;;11.50;99.90;;;;;;4196196;28;20213;-76
2023/05/28 06:07:37;;;;;;;5.50;2.53;;;11.50;99.90;;;;;;4195071;28;20623;-76
2023/05/28 06:09:39;;;;;;;7.10;2.70;;;11.60;99.90;;;;;;4195371;28;20304;-76
2023/05/28 06:11:41;;;;;;;6.03;3.03;;;11.60;99.90;;;;;;4196252;28;20245;-76
2023/05/28 06:13:43;;;;;;;4.63;2.60;;;11.70;99.90;;;;;;4194641;28;20220;-77
2023/05/28 06:15:45;;;;;;;3.70;2.17;;;11.70;99.90;;;;;;4195046;28;20278;-76
2023/05/28 06:17:48;;;;;;;3.07;2.10;;;11.70;99.90;;;;;;4196207;28;20220;-76
2023/05/28 06:19:51;;;;;;;4.13;2.10;;;11.80;99.90;;;;;;4196249;28;20690;-76
2023/05/28 06:21:53;;;;;;;3.13;2.03;;;11.80;99.90;;;;;;4195821;28;20221;-77
2023/05/28 06:23:55;;;;;;;3.43;2.13;;;11.90;99.90;;;;;;4196672;28;20300;-77
2023/05/28 06:25:57;;;;;;;3.40;2.00;;;11.90;99.90;;;;;;4196069;28;20209;-77
2023/05/28 06:27:59;;;;;;;3.73;2.43;;;12.00;99.90;;;;;;4192252;28;20213;-77
2023/05/28 06:30:01;;;;;;;4.13;2.23;;;12.00;99.90;;;;;;4195879;28;20647;-77
2023/05/28 06:32:03;;;;;;;5.47;2.53;;;12.00;99.90;;;;;;4195781;28;20684;-76
2023/05/28 06:34:06;;;;;;;5.83;2.63;;;12.10;99.90;;;;;;4191269;28;20278;-76
2023/05/28 06:36:08;;;;;;;6.13;2.60;;;12.20;99.90;;;;;;4194574;28;20253;-76
2023/05/28 06:38:10;;;;;;;4.17;2.43;;;12.20;99.90;;;;;;4195452;28;20307;-77
2023/05/28 06:40:12;;;;;;;5.93;3.00;;;12.30;99.90;;;;;;4195699;28;20258;-76
2023/05/28 06:42:14;;;;;;;5.03;2.87;;;12.30;99.90;;;;;;4194456;28;20300;-76
2023/05/28 06:44:16;;;;;;;6.23;3.23;;;12.40;99.90;;;;;;4194637;28;20208;-77
2023/05/28 06:46:18;;;;;;;7.63;3.40;;;12.40;99.90;;;;;;4195559;28;20296;-77
2023/05/28 06:48:20;;;;;;;5.27;2.43;;;12.50;99.90;;;;;;4194188;28;20297;-76
2023/05/28 06:50:23;;;;;;;7.33;3.10;;;12.60;99.90;;;;;;4194601;28;20325;-77
2023/05/28 06:52:26;;;;;;;4.80;2.80;;;12.60;99.90;;;;;;4195274;28;20293;-76
2023/05/28 06:54:28;;;;;;;4.90;2.67;;;12.70;99.90;;;;;;4194336;28;20217;-76
2023/05/28 06:56:30;;;;;;;5.10;2.80;;;12.70;99.90;;;;;;4194481;28;20602;-76
2023/05/28 06:58:32;;;;;;;4.53;2.70;;;12.80;99.90;;;;;;4192757;28;20649;-77
2023/05/28 07:00:34;;;;;;;8.10;3.20;;;12.90;99.90;;;;;;4193894;28;20229;-76
2023/05/28 07:02:36;;;;;;;7.40;3.50;;;12.90;99.90;;;;;;4195593;28;20213;-77
2023/05/28 07:04:38;;;;;;;7.03;3.07;;;13.00;99.90;;;;;;4194164;28;20629;-77
2023/05/28 07:06:42;;;;;;;5.57;2.73;;;13.10;99.90;;;;;;4186946;28;20806;-77
2023/05/28 07:08:45;;;;;;;7.03;3.10;;;13.20;99.90;;;;;;4195641;28;20206;-78
2023/05/28 07:10:47;;;;;;;4.87;2.90;;;13.20;99.90;;;;;;4195602;28;20235;-77
2023/05/28 07:12:49;;;;;;;7.37;2.90;;;13.30;99.90;;;;;;4196126;28;20213;-77
2023/05/28 07:14:50;;;;;;;8.60;3.07;;;13.40;99.90;;;;;;4193974;28;20222;-77
2023/05/28 07:16:52;;;;;;;7.37;2.73;;;13.40;99.90;;;;;;4193860;28;20305;-77
2023/05/28 07:18:54;;;;;;;6.07;2.93;;;13.50;99.90;;;;;;4196172;28;20297;-77
2023/05/28 07:20:56;;;;;;;5.47;2.77;;;13.60;99.90;;;;;;4193467;28;20268;-76
2023/05/28 07:22:59;;;;;;;4.87;2.73;;;13.70;99.90;;;;;;4195032;28;20296;-77
2023/05/28 07:25:01;;;;;;;5.03;2.53;;;13.70;99.90;;;;;;4192148;28;20199;-77
2023/05/28 07:27:03;;;;;;;8.53;2.73;;;13.80;99.90;;;;;;4194963;28;20302;-76
2023/05/28 07:29:05;;;;;;;6.90;2.80;;;13.80;99.90;;;;;;4193593;28;20212;-76
2023/05/28 07:31:07;;;;;;;6.87;2.90;;;13.90;99.90;;;;;;4191826;28;20322;-77
2023/05/28 07:33:09;;;;;;;6.07;2.77;;;14.00;99.90;;;;;;4194710;28;20217;-76
2023/05/28 07:35:11;;;;;;;7.87;3.13;;;14.00;99.90;;;;;;4195197;28;20292;-77
2023/05/28 07:37:13;;;;;;;4.93;2.77;;;14.10;99.90;;;;;;4193925;28;20258;-77
2023/05/28 07:39:16;;;;;;;7.73;2.60;;;14.20;99.90;;;;;;4195435;28;20232;-77
2023/05/28 07:41:18;;;;;;;8.10;3.00;;;14.30;99.90;;;;;;4193812;28;20756;-79
2023/05/28 07:43:20;;;;;;;6.67;3.07;;;14.30;99.90;;;;;;4195296;28;20220;-79
2023/05/28 07:45:22;;;;;;;5.40;2.77;;;14.40;99.90;;;;;;4195729;28;20334;-79
2023/05/28 07:47:24;;;;;;;6.40;2.67;;;14.50;99.90;;;;;;4196001;28;20209;-79
2023/05/28 07:49:25;;;;;;;4.87;2.90;;;14.50;99.90;;;;;;4196073;28;20247;-79
2023/05/28 07:51:27;;;;;;;5.20;2.70;;;14.60;99.90;;;;;;4195666;28;20256;-79
2023/05/28 07:53:29;;;;;;;9.17;3.23;;;14.70;99.90;;;;;;4195705;28;20221;-79
2023/05/28 07:55:33;;;;;;;8.60;3.13;;;14.80;99.90;;;;;;4195900;28;20314;-79
2023/05/28 07:57:35;;;;;;;7.87;3.20;;;14.90;99.90;;;;;;4192157;28;20244;-79
2023/05/28 07:59:37;;;;;;;5.73;2.70;;;14.90;99.90;;;;;;4193462;28;20241;-78
2023/05/28 08:01:40;;;;;;;5.93;3.20;;;15.00;99.90;;;;;;4195038;28;20299;-78
2023/05/28 08:03:42;;;;;;;7.80;3.13;;;15.10;99.90;;;;;;4195785;28;20240;-79
2023/05/28 08:05:44;;;;;;;7.43;3.13;;;15.20;99.90;;;;;;4194710;28;20221;-79
2023/05/28 08:07:46;;;;;;;6.73;3.13;;;15.30;99.90;;;;;;4200050;28;20226;-78
2023/05/28 08:09:48;;;;;;;5.63;2.67;;;15.40;99.90;;;;;;4198181;28;20299;-79
2023/05/28 08:11:51;;;;;;;5.93;2.80;;;15.50;99.90;;;;;;4200208;28;20288;-79
2023/05/28 08:13:53;;;;;;;7.47;3.07;;;15.50;99.90;;;;;;4200949;28;20304;-78
2023/05/28 08:15:55;;;;;;;7.33;2.90;;;15.70;99.90;;;;;;4200321;28;20232;-79
2023/05/28 08:17:57;;;;;;;7.43;2.90;;;15.70;99.90;;;;;;4201165;28;20210;-78
2023/05/28 08:19:59;;;;;;;5.80;3.03;;;15.80;99.90;;;;;;4196329;28;20209;-78
2023/05/28 08:22:00;;;;;;;6.07;2.90;;;15.90;99.90;;;;;;4198930;28;20210;-79
2023/05/28 08:24:02;;;;;;;5.20;3.10;;;15.90;99.90;;;;;;4200180;28;20304;-79
2023/05/28 08:26:04;;;;;;;5.83;2.77;;;16.00;99.90;;;;;;4198856;28;20232;-79
2023/05/28 08:28:09;;;;;;;5.53;2.90;;;16.10;99.90;;;;;;4199681;28;20241;-79
2023/05/28 08:30:12;;;;;;;4.93;2.77;;;16.20;99.90;;;;;;4193498;28;20801;-79
2023/05/28 08:32:14;;;;;;;6.93;2.90;;;16.30;99.90;;;;;;4197431;28;20216;-79
2023/05/28 08:34:16;;;;;;;5.67;2.60;;;16.40;99.90;;;;;;4196918;28;20304;-79
2023/05/28 08:36:21;;;;;;;6.33;2.63;;;16.50;99.90;;;;;;4198351;28;20235;-78
2023/05/28 08:38:23;;;;;;;7.23;2.77;;;16.50;99.90;;;;;;4198738;28;20661;-79
2023/05/28 08:40:26;;;;;;;5.20;2.60;;;16.60;99.90;;;;;;4194192;28;20762;-78
2023/05/28 08:42:28;;;;;;;5.33;2.50;;;16.70;99.90;;;;;;4196263;28;20221;-78
2023/05/28 08:44:31;;;;;;;6.60;2.67;;;16.80;99.90;;;;;;4196883;28;20271;-78
2023/05/28 08:46:33;;;;;;;5.27;2.70;;;16.80;99.90;;;;;;4198140;28;20210;-77
2023/05/28 08:48:36;;;;;;;5.63;2.57;;;16.90;99.90;;;;;;4194223;28;20285;-78
2023/05/28 08:50:41;;;;;;;5.47;2.50;;;17.00;99.90;;;;;;4197862;28;20281;-78
2023/05/28 08:52:45;;;;;;;5.33;2.67;;;17.10;99.90;;;;;;4195746;28;20302;-78
2023/05/28 08:54:47;;;;;;;6.90;2.70;;;17.20;99.90;;;;;;4196075;28;20215;-77
2023/05/28 08:56:49;;;;;;;6.73;2.90;;;17.30;99.90;;;;;;4200726;28;20326;-79
2023/05/28 08:58:52;;;;;;;5.87;2.27;;;17.40;99.90;;;;;;4200479;28;20273;-81
2023/05/28 09:00:55;;;;;;;5.07;2.17;;;17.50;99.90;;;;;;4204632;28;20232;-76
2023/05/28 09:02:58;;;;;;;6.03;2.33;;;17.60;99.90;;;;;;4206599;28;20245;-78
2023/05/28 09:05:00;;;;;;;5.50;2.17;;;17.70;97.40;;;;;;4206687;28;20275;-79
2023/05/28 09:07:02;;;;;;;6.27;2.60;;;17.80;95.40;;;;;;4203723;28;20285;-79
2023/05/28 09:09:07;;;;;;;4.47;2.50;;;17.80;93.40;;;;;;4208048;28;20277;-77
2023/05/28 09:11:13;;;;;;;6.03;2.60;;;17.90;90.60;;;;;;4199105;28;20265;-78
2023/05/28 09:13:15;;;;;;;5.33;2.40;;;18.00;90.30;;;;;;4202279;28;20661;-80
2023/05/28 09:15:22;;;;;;;6.23;2.70;;;18.10;90.10;;;;;;4203523;28;20212;-74
2023/05/28 09:17:39;;;;;;;4.53;2.40;;;18.20;90.30;;;;;;4200235;28;20284;-74
2023/05/28 09:19:50;;;;;;;4.63;2.50;;;18.30;87.20;;;;;;4197665;28;20276;-77
2023/05/28 09:21:56;;;;;;;7.10;2.77;;;18.40;84.40;;;;;;4200611;28;20221;-77
2023/05/28 09:23:59;;;;;;;5.37;2.77;;;18.50;84.10;;;;;;4199485;28;20209;-77
2023/05/28 09:26:01;;;;;;;5.93;2.70;;;18.60;80.00;;;;;;4198573;28;20213;-78
2023/05/28 09:28:04;;;;;;;4.90;2.40;;;18.70;77.90;;;;;;4193129;28;20241;-78
2023/05/28 09:30:08;;;;;;;7.50;2.70;;;18.80;78.10;;;;;;4196072;28;20232;-77
2023/05/28 09:32:10;;;;;;;6.70;2.33;;;18.90;68.40;;;;;;4196323;28;20313;-78
2023/05/28 09:34:13;;;;;;;6.03;2.30;;;18.90;70.30;;;;;;4197444;28;20215;-80
2023/05/28 09:36:18;;;;;;;4.00;2.30;;;19.00;70.40;;;;;;4194884;28;20740;-79
2023/05/28 09:38:24;;;;;;;4.40;2.13;;;19.10;68.80;;;;;;4194810;28;20219;-78
2023/05/28 09:40:27;;;;;;;4.53;2.27;;;19.20;69.30;;;;;;4196155;28;20713;-79
2023/05/28 09:42:34;;;;;;;5.33;2.30;;;19.30;59.30;;;;;;4197427;28;20242;-78
2023/05/28 09:44:37;;;;;;;5.07;2.50;;;19.30;57.90;;;;;;4194243;28;20216;-78
2023/05/28 09:46:39;;;;;;;4.53;2.20;;;19.40;55.90;;;;;;4196361;28;20881;-78
2023/05/28 09:48:41;;;;;;;5.60;2.60;;;19.50;57.20;;;;;;4196060;28;20271;-79
2023/05/28 09:50:44;;;;;;;5.57;2.57;;;19.60;54.70;;;;;;4196148;28;20908;-79
2023/05/28 09:52:47;;;;;;;5.30;2.67;;;19.70;55.60;;;;;;4196611;28;20267;-79
2023/05/28 09:54:54;;;;;;;9.03;2.60;;;19.80;57.50;;;;;;4197271;28;20233;-80
2023/05/28 09:57:01;;;;;;;5.83;2.57;;;19.90;56.00;;;;;;4189122;28;20234;-78
2023/05/28 09:59:06;;;;;;;3.53;2.40;;;19.90;54.60;;;;;;4195038;28;20297;-78
2023/05/28 10:01:11;;;;;;;5.80;2.53;;;20.00;53.10;;;;;;4197462;28;20283;-80
2023/05/28 10:03:19;;;;;;;6.73;2.50;;;20.20;52.30;;;;;;4198456;28;20568;-80
2023/05/28 10:05:24;;;;;;;5.47;2.43;;;20.30;50.60;;;;;;4194899;28;20216;-78
2023/05/28 10:07:29;;;;;;;6.30;2.63;;;20.30;49.60;;;;;;4187893;28;20655;-80
2023/05/28 10:09:32;;;;;;;6.97;2.17;;;20.50;48.50;;;;;;4195056;28;20566;-78
2023/05/28 10:11:40;;;;;;;4.67;2.40;;;20.50;47.90;;;;;;4196235;28;20256;-78
2023/05/28 10:13:43;;;;;;;4.53;2.07;;;20.70;48.80;;;;;;4196476;28;20228;-78
2023/05/28 10:15:46;;;;;;;4.47;2.00;;;20.80;47.10;;;;;;4185013;28;20209;-78
2023/05/28 10:17:48;;;;;;;3.57;2.40;;;20.80;46.40;;;;;;4193346;28;20213;-78
2023/05/28 10:19:50;;;;;;;6.17;2.37;;;20.90;45.00;;;;;;4194668;28;20247;-78
2023/05/28 10:21:52;;;;;;;8.03;2.50;;;21.00;44.00;;;;;;4195035;28;20206;-78
2023/05/28 10:23:57;;;;;;;6.47;2.73;;;21.10;42.70;;;;;;4196212;28;20229;-78
2023/05/28 10:25:59;;;;;;;7.47;2.90;;;21.20;42.50;;;;;;4196118;28;20209;-79
2023/05/28 10:28:03;;;;;;;4.77;2.50;;;21.30;42.60;;;;;;4192300;28;20245;-79
2023/05/28 10:30:05;;;;;;;6.00;2.37;;;21.40;43.20;;;;;;4196037;28;20237;-79
2023/05/28 10:32:08;;;;;;;4.73;2.67;;;21.50;42.50;;;;;;4194457;28;20210;-79
2023/05/28 10:34:16;;;;;;;5.13;2.67;;;21.50;42.20;;;;;;4195030;28;20763;-79